createdAt,value
2017-12-22T00:01:12.059Z,30.02
2017-12-22T00:03:45.539Z,30.08
2017-12-22T00:06:19.006Z,30.05
2017-12-22T00:08:52.414Z,30.08
2017-12-22T00:11:25.763Z,30.09
2017-12-22T00:13:59.928Z,30.07
2017-12-22T00:16:33.545Z,29.99
2017-12-22T00:19:07.847Z,30.05
2017-12-22T00:21:41.762Z,30.03
2017-12-22T00:24:15.590Z,30.04
2017-12-22T00:26:48.812Z,30.04
2017-12-22T00:29:22.236Z,30.11
2017-12-22T00:31:56.010Z,30.03
2017-12-22T00:34:29.683Z,30.01
2017-12-22T00:37:03.078Z,29.98
2017-12-22T00:39:36.533Z,30.10
2017-12-22T00:42:11.279Z,30.18
2017-12-22T00:44:45.085Z,30.18
2017-12-22T00:47:18.710Z,30.23
2017-12-22T00:49:53.395Z,30.16
2017-12-22T00:52:27.418Z,30.40
2017-12-22T00:55:01.062Z,30.28
2017-12-22T00:57:35.036Z,30.27
2017-12-22T01:00:09.505Z,30.32
2017-12-22T01:02:43.011Z,30.37
2017-12-22T01:05:15.794Z,30.41
2017-12-22T01:07:49.215Z,30.44
2017-12-22T01:10:23.495Z,30.54
2017-12-22T01:12:57.381Z,30.61
2017-12-22T01:15:35.190Z,30.62
2017-12-22T01:19:12.647Z,30.56
2017-12-22T01:21:46.559Z,30.58
2017-12-22T01:24:20.566Z,30.52
2017-12-22T01:26:54.088Z,30.57
2017-12-22T01:29:28.549Z,30.57
2017-12-22T01:32:02.271Z,30.59
2017-12-22T01:34:35.703Z,30.55
2017-12-22T01:37:09.170Z,30.54
2017-12-22T01:39:42.975Z,30.58
2017-12-22T01:42:16.586Z,30.66
2017-12-22T01:44:50.371Z,30.66
2017-12-22T01:47:23.942Z,30.66
2017-12-22T01:49:57.348Z,30.67
2017-12-22T01:52:31.391Z,30.55
2017-12-22T01:55:04.823Z,30.46
2017-12-22T01:57:39.072Z,30.63
2017-12-22T02:00:21.403Z,30.78
2017-12-22T02:02:54.670Z,30.66
2017-12-22T02:05:28.714Z,30.79
2017-12-22T02:08:02.515Z,30.74
2017-12-22T02:10:36.247Z,30.97
2017-12-22T02:13:10.055Z,30.66
2017-12-22T02:15:43.842Z,30.94
2017-12-22T02:18:17.612Z,30.88
2017-12-22T02:20:51.086Z,30.57
2017-12-22T02:23:24.751Z,30.54
2017-12-22T02:25:58.198Z,30.24
2017-12-22T02:28:31.959Z,30.30
2017-12-22T02:31:05.959Z,30.33
2017-12-22T02:33:38.783Z,30.37
2017-12-22T02:36:12.275Z,30.38
2017-12-22T02:38:46.053Z,30.58
2017-12-22T02:41:20.740Z,30.56
2017-12-22T02:43:54.890Z,30.44
2017-12-22T02:46:28.691Z,30.38
2017-12-22T02:49:02.279Z,30.34
2017-12-22T02:51:35.676Z,30.41
2017-12-22T02:54:09.066Z,30.37
2017-12-22T02:56:42.435Z,30.41
2017-12-22T02:59:19.379Z,30.37
2017-12-22T03:01:53.213Z,30.41
2017-12-22T03:04:27.879Z,30.45
2017-12-22T03:07:01.672Z,30.45
2017-12-22T03:09:35.086Z,30.52
2017-12-22T03:12:08.463Z,30.50
2017-12-22T03:14:42.150Z,30.56
2017-12-22T03:17:15.829Z,30.60
2017-12-22T03:19:49.537Z,30.55
2017-12-22T03:22:22.886Z,30.61
2017-12-22T03:24:56.518Z,30.59
2017-12-22T03:27:30.902Z,30.62
2017-12-22T03:30:05.703Z,30.69
2017-12-22T03:32:39.577Z,30.70
2017-12-22T03:35:13.235Z,30.71
2017-12-22T03:37:46.546Z,30.73
2017-12-22T03:40:19.925Z,30.72
2017-12-22T03:42:53.549Z,30.74
2017-12-22T03:45:27.993Z,30.74
2017-12-22T03:48:01.465Z,30.80
2017-12-22T03:50:35.449Z,30.77
2017-12-22T03:53:13.065Z,30.88
2017-12-22T03:55:47.034Z,30.74
2017-12-22T03:58:21.673Z,30.74
2017-12-22T04:00:55.581Z,31.26
2017-12-22T04:03:29.702Z,30.82
2017-12-22T04:06:03.325Z,30.83
2017-12-22T04:08:36.922Z,30.74
2017-12-22T04:11:10.689Z,30.68
2017-12-22T04:13:44.119Z,30.72
2017-12-22T04:16:18.109Z,30.67
2017-12-22T04:18:51.465Z,30.75
2017-12-22T04:21:25.113Z,30.74
2017-12-22T04:23:58.863Z,30.92
2017-12-22T04:26:32.937Z,30.95
2017-12-22T04:29:06.342Z,30.90
2017-12-22T04:31:40.004Z,30.83
2017-12-22T04:34:13.473Z,30.78
2017-12-22T04:36:47.206Z,30.75
2017-12-22T04:39:21.345Z,30.68
2017-12-22T04:41:55.077Z,30.65
2017-12-22T04:44:29.832Z,30.63
2017-12-22T04:47:03.758Z,30.56
2017-12-22T04:49:37.474Z,30.49
2017-12-22T04:52:11.178Z,30.44
2017-12-22T04:54:44.493Z,30.40
2017-12-22T04:57:18.324Z,30.35
2017-12-22T04:59:51.785Z,30.28
2017-12-22T05:02:25.486Z,30.29
2017-12-22T05:04:58.969Z,30.32
2017-12-22T05:07:32.888Z,30.23
2017-12-22T05:10:06.330Z,30.22
2017-12-22T05:12:39.832Z,30.20
2017-12-22T05:15:14.640Z,30.18
2017-12-22T05:17:48.621Z,30.19
2017-12-22T05:20:21.994Z,30.16
2017-12-22T05:22:55.633Z,30.10
2017-12-22T05:25:29.879Z,30.07
2017-12-22T05:28:03.506Z,30.03
2017-12-22T05:30:37.295Z,30.04
2017-12-22T05:33:10.657Z,30.03
2017-12-22T05:35:44.105Z,30.04
2017-12-22T05:38:18.165Z,30.05
2017-12-22T05:40:51.793Z,30.00
2017-12-22T05:43:25.430Z,30.02
2017-12-22T05:45:59.030Z,29.93
2017-12-22T05:48:32.811Z,30.00
2017-12-22T05:51:06.822Z,29.96
2017-12-22T05:53:40.450Z,29.93
2017-12-22T05:56:17.777Z,29.93
2017-12-22T05:58:51.166Z,29.93
2017-12-22T06:01:25.018Z,29.91
2017-12-22T06:03:59.285Z,29.91
2017-12-22T06:06:32.857Z,29.89
2017-12-22T06:09:06.617Z,29.89
2017-12-22T06:11:39.985Z,29.86
2017-12-22T06:14:13.598Z,29.90
2017-12-22T06:16:47.205Z,29.88
2017-12-22T06:19:20.874Z,29.88
2017-12-22T06:21:54.298Z,29.91
2017-12-22T06:24:28.934Z,29.86
2017-12-22T06:27:02.297Z,29.88
2017-12-22T06:29:35.638Z,29.88
2017-12-22T06:32:09.320Z,29.88
2017-12-22T06:34:43.299Z,29.85
2017-12-22T06:37:16.706Z,29.85
2017-12-22T06:39:50.114Z,29.83
2017-12-22T06:42:24.530Z,29.83
2017-12-22T06:44:59.113Z,29.84
2017-12-22T06:47:33.998Z,29.81
2017-12-22T06:50:07.701Z,29.87
2017-12-22T06:52:41.094Z,29.84
2017-12-22T06:55:14.773Z,29.86
2017-12-22T06:57:48.105Z,29.83
2017-12-22T07:00:22.141Z,29.83
2017-12-22T07:02:55.261Z,29.87
2017-12-22T07:05:28.717Z,29.86
2017-12-22T07:08:02.084Z,29.86
2017-12-22T07:13:02.956Z,29.86
2017-12-22T07:15:36.486Z,29.83
2017-12-22T07:18:10.221Z,29.81
2017-12-22T07:20:43.687Z,29.87
2017-12-22T07:23:17.415Z,29.88
2017-12-22T07:25:50.863Z,29.88
2017-12-22T07:28:24.449Z,29.92
2017-12-22T07:30:57.983Z,29.88
2017-12-22T07:33:31.539Z,29.89
2017-12-22T07:36:07.567Z,29.88
2017-12-22T07:38:41.169Z,29.92
2017-12-22T07:41:14.695Z,29.94
2017-12-22T07:43:48.234Z,29.95
2017-12-22T07:46:21.697Z,29.99
2017-12-22T07:48:55.366Z,29.97
2017-12-22T07:51:28.932Z,30.00
2017-12-22T07:54:02.461Z,29.99
2017-12-22T07:56:36.132Z,30.00
2017-12-22T07:59:09.993Z,30.05
2017-12-22T08:01:43.533Z,30.00
2017-12-22T08:04:17.080Z,30.04
2017-12-22T08:06:51.055Z,30.01
2017-12-22T08:09:24.391Z,30.05
2017-12-22T08:11:58.835Z,30.05
2017-12-22T08:14:32.295Z,30.08
2017-12-22T08:17:05.849Z,30.10
2017-12-22T08:19:39.564Z,30.11
2017-12-22T08:22:13.407Z,30.10
2017-12-22T08:24:47.080Z,30.15
2017-12-22T08:27:21.095Z,30.14
2017-12-22T08:29:54.764Z,30.14
2017-12-22T08:32:28.588Z,30.22
2017-12-22T08:35:02.062Z,30.21
2017-12-22T08:37:35.962Z,30.19
2017-12-22T08:40:09.617Z,30.21
2017-12-22T08:42:43.166Z,30.22
2017-12-22T08:45:16.818Z,30.24
2017-12-22T08:47:50.540Z,30.23
2017-12-22T08:50:24.427Z,30.25
2017-12-22T08:52:59.092Z,30.27
2017-12-22T08:55:32.452Z,30.23
2017-12-22T08:58:06.029Z,30.22
2017-12-22T09:00:39.709Z,30.29
2017-12-22T09:03:13.214Z,30.30
2017-12-22T09:05:46.716Z,30.26
2017-12-22T09:08:20.079Z,30.27
2017-12-22T09:10:54.102Z,30.28
2017-12-22T09:13:27.909Z,30.33
2017-12-22T09:16:02.363Z,30.37
2017-12-22T09:18:36.203Z,30.38
2017-12-22T09:21:09.837Z,30.35
2017-12-22T09:23:43.412Z,30.37
2017-12-22T09:26:17.000Z,30.40
2017-12-22T09:28:50.644Z,30.39
2017-12-22T09:31:24.139Z,30.39
2017-12-22T09:33:59.016Z,30.37
2017-12-22T09:36:32.500Z,30.44
2017-12-22T09:39:06.450Z,30.40
2017-12-22T09:41:40.083Z,30.43
2017-12-22T09:44:13.561Z,30.45
2017-12-22T09:46:47.089Z,30.51
2017-12-22T09:49:20.952Z,30.48
2017-12-22T09:51:54.567Z,30.48
2017-12-22T09:54:28.240Z,30.45
2017-12-22T09:57:01.770Z,30.52
2017-12-22T09:59:35.504Z,30.52
2017-12-22T10:02:09.211Z,30.55
2017-12-22T10:04:43.264Z,30.56
2017-12-22T10:07:19.648Z,30.52
2017-12-22T10:09:53.616Z,30.59
2017-12-22T10:12:27.378Z,30.56
2017-12-22T10:15:03.017Z,30.54
2017-12-22T10:17:36.691Z,30.63
2017-12-22T10:20:11.143Z,30.54
2017-12-22T10:22:44.738Z,30.56
2017-12-22T10:25:18.393Z,30.56
2017-12-22T10:27:54.411Z,30.57
2017-12-22T10:30:28.107Z,30.56
2017-12-22T10:33:01.626Z,30.56
2017-12-22T10:35:35.376Z,30.56
2017-12-22T10:38:08.914Z,30.59
2017-12-22T10:40:42.487Z,30.56
2017-12-22T10:43:16.224Z,30.53
2017-12-22T10:45:49.953Z,30.48
2017-12-22T10:48:23.485Z,30.52
2017-12-22T10:50:57.045Z,30.53
2017-12-22T10:53:30.750Z,30.54
2017-12-22T10:56:05.952Z,30.57
2017-12-22T10:58:39.679Z,30.56
2017-12-22T11:01:13.404Z,30.62
2017-12-22T11:03:46.977Z,30.66
2017-12-22T11:06:21.003Z,30.65
2017-12-22T11:08:54.532Z,30.63
2017-12-22T11:11:28.380Z,30.63
2017-12-22T11:14:02.159Z,30.70
2017-12-22T11:16:35.822Z,30.66
2017-12-22T11:19:10.483Z,30.61
2017-12-22T11:21:43.940Z,30.63
2017-12-22T11:24:19.801Z,30.62
2017-12-22T11:26:53.520Z,30.62
2017-12-22T11:29:27.224Z,30.61
2017-12-22T11:32:02.055Z,30.62
2017-12-22T11:34:36.084Z,30.65
2017-12-22T11:37:09.979Z,30.67
2017-12-22T11:39:43.503Z,30.68
2017-12-22T11:42:17.151Z,30.67
2017-12-22T11:44:51.086Z,30.63
2017-12-22T11:47:24.681Z,30.60
2017-12-22T11:49:58.299Z,30.60
2017-12-22T11:52:32.005Z,30.64
2017-12-22T11:55:05.537Z,30.58
2017-12-22T11:57:39.123Z,30.62
2017-12-22T12:00:16.094Z,30.60
2017-12-22T12:02:50.083Z,30.64
2017-12-22T12:05:23.521Z,30.66
2017-12-22T12:07:57.095Z,30.66
2017-12-22T12:10:30.700Z,30.65
2017-12-22T12:13:04.303Z,30.66
2017-12-22T12:15:37.783Z,30.67
2017-12-22T12:18:12.047Z,30.64
2017-12-22T12:20:45.768Z,30.63
2017-12-22T12:23:17.647Z,30.58
2017-12-22T12:25:48.561Z,30.58
2017-12-22T12:28:19.608Z,30.62
2017-12-22T12:30:50.499Z,30.63
2017-12-22T12:33:21.632Z,30.66
2017-12-22T12:35:52.630Z,30.66
2017-12-22T12:38:23.402Z,30.65
2017-12-22T12:40:54.467Z,30.66
2017-12-22T12:43:25.506Z,30.62
2017-12-22T12:45:56.640Z,30.57
2017-12-22T12:48:27.912Z,30.65
2017-12-22T12:50:58.821Z,30.66
2017-12-22T12:53:29.812Z,30.63
2017-12-22T12:56:00.674Z,30.62
2017-12-22T12:58:31.753Z,30.57
2017-12-22T13:01:02.980Z,30.61
2017-12-22T13:03:34.050Z,30.61
2017-12-22T13:06:05.198Z,30.58
2017-12-22T13:08:39.320Z,30.58
2017-12-22T13:11:12.957Z,30.56
2017-12-22T13:13:46.619Z,30.53
2017-12-22T13:16:22.399Z,30.57
2017-12-22T13:18:53.355Z,30.62
2017-12-22T13:21:24.382Z,30.62
2017-12-22T13:23:55.286Z,30.64
2017-12-22T13:26:26.074Z,30.63
2017-12-22T13:28:57.201Z,30.61
2017-12-22T13:31:28.475Z,30.68
2017-12-22T13:33:59.428Z,30.59
2017-12-22T13:36:32.028Z,30.60
2017-12-22T13:39:03.060Z,30.62
2017-12-22T13:41:34.022Z,30.61
2017-12-22T13:44:05.256Z,30.63
2017-12-22T13:46:36.066Z,30.62
2017-12-22T13:49:07.058Z,30.67
2017-12-22T13:51:38.165Z,30.66
2017-12-22T13:54:09.103Z,30.70
2017-12-22T13:56:40.091Z,30.66
2017-12-22T13:59:12.319Z,30.63
2017-12-22T14:01:43.149Z,30.71
2017-12-22T14:04:14.132Z,30.73
2017-12-22T14:06:45.111Z,30.74
2017-12-22T14:09:15.869Z,30.77
2017-12-22T14:11:46.736Z,30.76
2017-12-22T14:14:19.758Z,30.75
2017-12-22T14:16:50.629Z,30.78
2017-12-22T14:19:21.662Z,30.81
2017-12-22T14:21:53.616Z,30.84
2017-12-22T14:24:24.503Z,30.79
2017-12-22T14:26:57.228Z,30.79
2017-12-22T14:29:29.534Z,30.82
2017-12-22T14:32:02.252Z,30.86
2017-12-22T14:34:35.291Z,30.80
2017-12-22T14:37:07.390Z,30.84
2017-12-22T14:39:38.972Z,30.79
2017-12-22T14:42:11.912Z,30.81
2017-12-22T14:44:43.769Z,30.83
2017-12-22T14:47:15.442Z,30.82
2017-12-22T14:49:47.121Z,30.81
2017-12-22T14:52:18.933Z,30.81
2017-12-22T14:54:50.736Z,30.80
2017-12-22T14:57:22.570Z,30.76
2017-12-22T14:59:54.495Z,30.81
2017-12-22T15:02:26.200Z,30.77
2017-12-22T15:04:58.900Z,30.81
2017-12-22T15:07:31.603Z,30.73
2017-12-22T15:10:04.397Z,30.74
2017-12-22T15:12:37.168Z,30.73
2017-12-22T15:15:13.217Z,30.73
2017-12-22T15:17:45.003Z,30.74
2017-12-22T15:20:16.849Z,30.72
2017-12-22T15:22:49.693Z,30.74
2017-12-22T15:25:21.531Z,30.71
2017-12-22T15:27:53.764Z,30.73
2017-12-22T15:30:25.541Z,30.73
2017-12-22T15:32:58.186Z,30.73
2017-12-22T15:35:30.103Z,30.70
2017-12-22T15:38:01.848Z,30.72
2017-12-22T15:40:34.399Z,30.68
2017-12-22T15:43:07.079Z,30.72
2017-12-22T15:45:41.265Z,30.70
2017-12-22T15:48:15.692Z,30.73
2017-12-22T15:50:49.212Z,30.72
2017-12-22T15:53:23.519Z,30.70
2017-12-22T15:55:56.420Z,30.71
2017-12-22T15:58:30.531Z,30.70
2017-12-22T16:01:04.042Z,30.71
2017-12-22T16:03:37.736Z,30.75
2017-12-22T16:06:11.740Z,30.73
2017-12-22T16:08:45.256Z,30.69
2017-12-22T16:11:19.002Z,30.67
2017-12-22T16:13:53.661Z,30.66
2017-12-22T16:16:27.315Z,30.67
2017-12-22T16:19:00.775Z,30.69
2017-12-22T16:21:35.165Z,30.68
2017-12-22T16:24:11.424Z,30.67
2017-12-22T16:26:44.865Z,30.65
2017-12-22T16:29:19.024Z,30.70
2017-12-22T16:31:52.596Z,30.71
2017-12-22T16:34:27.442Z,30.69
2017-12-22T16:37:00.842Z,30.74
2017-12-22T16:39:34.468Z,30.71
2017-12-22T16:42:07.940Z,30.71
2017-12-22T16:44:41.839Z,30.69
2017-12-22T16:47:15.555Z,30.68
2017-12-22T16:49:48.259Z,30.71
2017-12-22T16:52:21.919Z,30.72
2017-12-22T16:54:55.598Z,30.71
2017-12-22T16:57:29.226Z,30.71
2017-12-22T17:00:04.567Z,30.72
2017-12-22T17:02:39.340Z,30.71
2017-12-22T17:05:15.210Z,30.71
2017-12-22T17:07:48.820Z,30.73
2017-12-22T17:10:22.615Z,30.75
2017-12-22T17:12:56.141Z,30.73
2017-12-22T17:15:29.789Z,30.71
2017-12-22T17:18:03.819Z,30.75
2017-12-22T17:20:38.220Z,30.71
2017-12-22T17:23:11.986Z,30.71
2017-12-22T17:25:45.739Z,30.73
2017-12-22T17:28:19.211Z,30.70
2017-12-22T17:30:52.846Z,30.77
2017-12-22T17:33:26.220Z,30.74
2017-12-22T17:35:59.831Z,30.74
2017-12-22T17:38:33.366Z,30.76
2017-12-22T17:41:07.340Z,30.73
2017-12-22T17:43:41.282Z,30.71
2017-12-22T17:46:14.696Z,30.72
2017-12-22T17:48:48.100Z,30.73
2017-12-22T17:51:21.576Z,30.72
2017-12-22T17:53:55.208Z,30.71
2017-12-22T17:56:29.032Z,30.69
2017-12-22T17:59:02.699Z,30.76
2017-12-22T18:01:36.299Z,30.79
2017-12-22T18:04:09.955Z,30.74
2017-12-22T18:06:43.716Z,30.74
2017-12-22T18:09:16.953Z,30.70
2017-12-22T18:11:49.857Z,30.71
2017-12-22T18:14:22.896Z,30.72
2017-12-22T18:16:56.233Z,30.71
2017-12-22T18:19:29.273Z,30.68
2017-12-22T18:22:02.484Z,30.71
2017-12-22T18:24:35.038Z,30.71
2017-12-22T18:27:08.855Z,30.72
2017-12-22T18:29:42.352Z,30.72
2017-12-22T18:32:21.808Z,30.70
2017-12-22T18:34:55.637Z,30.71
2017-12-22T18:37:29.223Z,30.70
2017-12-22T18:40:03.041Z,30.69
2017-12-22T18:42:36.848Z,30.69
2017-12-22T18:45:10.643Z,30.67
2017-12-22T18:47:45.129Z,30.69
2017-12-22T18:50:19.984Z,30.71
2017-12-22T18:52:53.580Z,30.69
2017-12-22T18:55:27.116Z,30.72
2017-12-22T18:58:00.876Z,30.69
2017-12-22T19:00:34.378Z,30.67
2017-12-22T19:03:13.193Z,30.64
2017-12-22T19:05:47.985Z,30.71
2017-12-22T19:08:21.395Z,30.64
2017-12-22T19:10:54.935Z,30.65
2017-12-22T19:13:29.924Z,30.70
2017-12-22T19:16:03.433Z,30.71
2017-12-22T19:18:37.889Z,30.70
2017-12-22T19:21:11.626Z,30.69
2017-12-22T19:23:45.141Z,30.71
2017-12-22T19:26:18.860Z,30.71
2017-12-22T19:28:52.391Z,30.71
2017-12-22T19:31:26.491Z,30.73
2017-12-22T19:34:02.004Z,30.80
2017-12-22T19:36:35.635Z,30.83
2017-12-22T19:39:09.566Z,30.87
2017-12-22T19:41:43.359Z,30.90
2017-12-22T19:44:16.879Z,30.96
2017-12-22T19:46:50.925Z,30.98
2017-12-22T19:49:24.546Z,30.99
2017-12-22T19:51:58.036Z,31.00
2017-12-22T19:54:31.685Z,31.03
2017-12-22T19:57:05.307Z,31.08
2017-12-22T19:59:39.361Z,31.09
2017-12-22T20:02:12.833Z,31.16
2017-12-22T20:04:46.779Z,31.20
2017-12-22T20:07:20.156Z,31.21
2017-12-22T20:09:53.665Z,31.23
2017-12-22T20:12:27.539Z,31.23
2017-12-22T20:15:02.717Z,31.23
2017-12-22T20:17:36.176Z,31.20
2017-12-22T20:20:10.035Z,31.24
2017-12-22T20:22:43.608Z,31.21
2017-12-22T20:25:17.599Z,31.23
2017-12-22T20:27:51.160Z,31.27
2017-12-22T20:30:24.750Z,31.22
2017-12-22T20:32:58.500Z,31.27
2017-12-22T20:35:32.201Z,31.30
2017-12-22T20:38:05.716Z,31.31
2017-12-22T20:40:39.649Z,31.36
2017-12-22T20:43:13.185Z,31.33
2017-12-22T20:45:47.084Z,31.34
2017-12-22T20:48:20.433Z,31.36
2017-12-22T20:50:54.059Z,31.38
2017-12-22T20:53:27.676Z,31.36
2017-12-22T20:56:01.723Z,31.36
2017-12-22T20:58:35.454Z,31.38
2017-12-22T21:01:09.105Z,31.38
2017-12-22T21:03:42.563Z,31.39
2017-12-22T21:06:16.199Z,31.40
2017-12-22T21:08:49.846Z,31.40
2017-12-22T21:11:23.912Z,31.40
2017-12-22T21:13:57.445Z,31.39
2017-12-22T21:16:30.995Z,31.36
2017-12-22T21:19:05.334Z,31.39
2017-12-22T21:21:38.838Z,31.41
2017-12-22T21:24:12.688Z,31.36
2017-12-22T21:26:46.677Z,31.39
2017-12-22T21:29:20.275Z,31.42
2017-12-22T21:31:54.036Z,31.45
2017-12-22T21:34:27.763Z,31.41
2017-12-22T21:37:01.208Z,31.43
2017-12-22T21:39:34.926Z,31.41
2017-12-22T21:42:08.602Z,31.40
2017-12-22T21:44:42.272Z,31.44
2017-12-22T21:47:15.706Z,31.44
2017-12-22T21:49:49.314Z,31.42
2017-12-22T21:52:22.830Z,31.43
2017-12-22T21:54:56.380Z,31.44
2017-12-22T21:57:30.228Z,31.45
2017-12-22T22:00:05.905Z,31.45
2017-12-22T22:02:39.507Z,31.40
2017-12-22T22:05:13.260Z,31.44
2017-12-22T22:07:47.195Z,31.46
2017-12-22T22:10:20.846Z,31.41
2017-12-22T22:12:54.599Z,31.41
2017-12-22T22:15:28.132Z,31.40
2017-12-22T22:18:01.965Z,31.40
2017-12-22T22:20:35.318Z,31.42
2017-12-22T22:23:08.951Z,31.43
2017-12-22T22:25:42.535Z,31.46
2017-12-22T22:28:16.126Z,31.47
2017-12-22T22:30:49.815Z,31.46
2017-12-22T22:33:23.431Z,31.43
2017-12-22T22:42:10.837Z,31.50
2017-12-22T22:44:44.589Z,31.51
2017-12-22T22:49:56.390Z,31.47
2017-12-22T22:52:30.037Z,31.49
2017-12-22T22:55:03.996Z,31.40
2017-12-22T22:57:37.561Z,31.42
2017-12-22T23:00:13.872Z,31.45
2017-12-22T23:02:47.091Z,31.39
2017-12-22T23:05:20.736Z,31.39
2017-12-22T23:07:54.206Z,31.39
2017-12-22T23:10:27.631Z,31.40
2017-12-22T23:13:01.007Z,31.39
2017-12-22T23:15:34.818Z,31.39
2017-12-22T23:18:10.296Z,31.41
2017-12-22T23:20:43.977Z,31.39
2017-12-22T23:23:17.439Z,31.40
2017-12-22T23:25:50.996Z,31.40
2017-12-22T23:28:24.947Z,31.40
2017-12-22T23:30:58.482Z,31.37
2017-12-22T23:33:31.882Z,31.43
2017-12-22T23:36:05.247Z,31.41
2017-12-22T23:38:38.682Z,31.42
2017-12-22T23:41:12.263Z,31.43
2017-12-22T23:43:46.054Z,31.43
2017-12-22T23:46:19.546Z,31.43
2017-12-22T23:48:53.106Z,31.42
2017-12-22T23:51:26.654Z,31.38
2017-12-22T23:54:00.158Z,31.38
2017-12-22T23:56:33.771Z,31.39
2017-12-22T23:59:07.472Z,31.38
